createdAt,value
2022-11-30T00:01:17.192Z,7.10
2022-11-30T00:03:44.172Z,6.77
2022-11-30T00:06:13.846Z,7.90
2022-11-30T00:08:40.768Z,7.40
2022-11-30T00:11:09.644Z,6.93
2022-11-30T00:13:36.628Z,8.30
2022-11-30T00:16:04.287Z,7.23
2022-11-30T00:18:31.004Z,9.43
2022-11-30T00:21:06.180Z,8.03
2022-11-30T00:23:34.031Z,7.90
2022-11-30T00:26:08.315Z,7.30
2022-11-30T00:28:36.063Z,6.73
2022-11-30T00:31:08.559Z,6.87
2022-11-30T00:33:36.751Z,7.00
2022-11-30T00:36:10.552Z,7.53
2022-11-30T00:38:37.198Z,7.00
2022-11-30T00:41:04.182Z,7.30
2022-11-30T00:43:31.215Z,7.77
2022-11-30T00:45:58.106Z,8.17
2022-11-30T00:48:25.072Z,8.53
2022-11-30T00:50:51.917Z,7.40
2022-11-30T00:53:19.301Z,6.03
2022-11-30T00:55:46.863Z,7.00
2022-11-30T00:58:13.601Z,8.03
2022-11-30T01:00:40.452Z,7.30
2022-11-30T01:03:07.149Z,8.03
2022-11-30T01:05:35.076Z,9.27
2022-11-30T01:08:03.122Z,9.50
2022-11-30T01:10:29.890Z,7.53
2022-11-30T01:12:56.860Z,8.97
2022-11-30T01:15:23.684Z,7.50
2022-11-30T01:17:50.560Z,8.70
2022-11-30T01:20:17.451Z,7.80
2022-11-30T01:22:44.194Z,8.67
2022-11-30T01:25:10.989Z,8.00
2022-11-30T01:27:37.730Z,8.13
2022-11-30T01:30:05.401Z,7.10
2022-11-30T01:32:32.211Z,7.53
2022-11-30T01:34:59.079Z,8.17
2022-11-30T01:37:25.734Z,7.77
2022-11-30T01:39:52.386Z,7.90
2022-11-30T01:42:20.333Z,8.77
2022-11-30T01:44:57.878Z,8.53
2022-11-30T01:47:34.600Z,7.97
2022-11-30T01:50:09.741Z,8.87
2022-11-30T01:52:39.525Z,8.00
2022-11-30T01:55:42.642Z,9.03
2022-11-30T01:58:12.035Z,8.67
2022-11-30T02:00:40.029Z,8.33
2022-11-30T02:03:18.532Z,8.93
2022-11-30T02:05:46.050Z,7.30
2022-11-30T02:08:12.918Z,7.70
2022-11-30T02:10:42.364Z,8.50
2022-11-30T02:13:31.381Z,9.23
2022-11-30T02:16:04.136Z,9.57
2022-11-30T02:18:58.691Z,7.20
2022-11-30T02:21:33.962Z,7.60
2022-11-30T02:24:33.387Z,7.97
2022-11-30T02:27:20.382Z,9.50
2022-11-30T02:30:14.263Z,7.40
2022-11-30T02:33:03.563Z,6.40
2022-11-30T02:35:33.261Z,9.37
2022-11-30T02:38:01.490Z,9.93
2022-11-30T02:40:28.522Z,9.93
2022-11-30T02:42:56.347Z,8.10
2022-11-30T02:45:42.381Z,8.63
2022-11-30T02:48:10.370Z,7.87
2022-11-30T02:50:45.892Z,8.70
2022-11-30T02:53:13.625Z,8.50
2022-11-30T02:55:40.468Z,7.37
2022-11-30T02:58:07.078Z,7.47
2022-11-30T03:00:33.721Z,7.73
2022-11-30T03:03:00.532Z,9.90
2022-11-30T03:05:27.354Z,7.67
2022-11-30T03:07:54.020Z,8.50
2022-11-30T03:10:20.670Z,9.40
2022-11-30T03:12:47.342Z,8.77
2022-11-30T03:15:14.133Z,8.80
2022-11-30T03:17:40.960Z,9.63
2022-11-30T03:20:08.356Z,9.80
2022-11-30T03:22:35.030Z,9.07
2022-11-30T03:25:01.817Z,8.03
2022-11-30T03:27:28.555Z,8.77
2022-11-30T03:29:55.461Z,8.87
2022-11-30T03:32:22.178Z,7.80
2022-11-30T03:34:49.139Z,9.00
2022-11-30T03:37:16.143Z,7.97
2022-11-30T03:39:42.814Z,8.53
2022-11-30T03:42:09.551Z,8.63
2022-11-30T03:44:36.221Z,8.70
2022-11-30T03:47:02.973Z,8.33
2022-11-30T03:49:29.743Z,8.73
2022-11-30T03:51:56.432Z,8.50
2022-11-30T03:54:23.229Z,7.73
2022-11-30T03:56:49.940Z,10.90
2022-11-30T03:59:16.650Z,9.37
2022-11-30T04:01:43.544Z,10.00
2022-11-30T04:04:11.831Z,8.80
2022-11-30T04:06:38.639Z,9.37
2022-11-30T04:09:05.369Z,8.70
2022-11-30T04:11:32.191Z,10.13
2022-11-30T04:13:58.919Z,9.30
2022-11-30T04:16:25.687Z,8.27
2022-11-30T04:18:52.671Z,8.17
2022-11-30T04:21:19.479Z,7.53
2022-11-30T04:23:46.150Z,8.67
2022-11-30T04:26:14.450Z,7.90
2022-11-30T04:28:41.410Z,7.83
2022-11-30T04:31:08.846Z,8.00
2022-11-30T04:33:35.632Z,8.07
2022-11-30T04:36:05.310Z,7.20
2022-11-30T04:38:32.990Z,7.53
2022-11-30T04:41:00.273Z,7.23
2022-11-30T04:43:27.551Z,8.47
2022-11-30T04:45:54.261Z,7.90
2022-11-30T04:48:21.003Z,8.67
2022-11-30T04:50:47.839Z,7.80
2022-11-30T04:53:14.631Z,6.07
2022-11-30T04:55:41.394Z,7.37
2022-11-30T04:58:08.434Z,7.33
2022-11-30T05:00:35.908Z,8.40
2022-11-30T05:03:02.851Z,7.60
2022-11-30T05:05:29.611Z,8.17
2022-11-30T05:07:58.464Z,9.20
2022-11-30T05:10:26.272Z,6.53
2022-11-30T05:12:53.117Z,7.80
2022-11-30T05:15:20.210Z,8.50
2022-11-30T05:17:46.971Z,9.50
2022-11-30T05:20:13.738Z,8.77
2022-11-30T05:22:40.445Z,6.43
2022-11-30T05:25:07.467Z,7.30
2022-11-30T05:27:35.419Z,7.60
2022-11-30T05:30:02.270Z,8.30
2022-11-30T05:32:28.892Z,7.40
2022-11-30T05:34:55.938Z,7.87
2022-11-30T05:37:22.610Z,8.30
2022-11-30T05:39:49.275Z,7.60
2022-11-30T05:42:15.945Z,6.80
2022-11-30T05:44:43.144Z,9.10
2022-11-30T05:47:09.905Z,9.07
2022-11-30T05:49:36.574Z,7.93
2022-11-30T05:52:03.321Z,7.40
2022-11-30T05:54:29.939Z,7.27
2022-11-30T05:56:56.772Z,8.27
2022-11-30T05:59:23.577Z,9.23
2022-11-30T06:01:52.758Z,10.70
2022-11-30T06:04:21.756Z,10.00
2022-11-30T06:06:49.708Z,9.03
2022-11-30T06:09:16.464Z,8.80
2022-11-30T06:11:43.268Z,8.47
2022-11-30T06:14:09.983Z,6.83
2022-11-30T06:16:41.186Z,6.80
2022-11-30T06:19:08.044Z,6.87
2022-11-30T06:21:34.872Z,7.63
2022-11-30T06:24:01.647Z,8.60
2022-11-30T06:26:28.613Z,6.93
2022-11-30T06:28:55.554Z,7.03
2022-11-30T06:31:22.255Z,9.10
2022-11-30T06:33:49.253Z,8.60
2022-11-30T06:36:22.119Z,8.50
2022-11-30T06:38:49.012Z,7.87
2022-11-30T06:41:15.744Z,9.07
2022-11-30T06:43:42.452Z,7.50
2022-11-30T06:46:09.608Z,8.63
2022-11-30T06:48:36.670Z,12.03
2022-11-30T06:51:10.193Z,9.03
2022-11-30T06:53:37.473Z,10.17
2022-11-30T06:56:10.020Z,11.80
2022-11-30T06:58:41.373Z,10.13
2022-11-30T07:01:10.532Z,12.50
2022-11-30T07:03:37.670Z,13.00
2022-11-30T07:06:10.383Z,11.63
2022-11-30T07:08:38.146Z,12.17
2022-11-30T07:11:05.563Z,11.17
2022-11-30T07:13:32.382Z,12.77
2022-11-30T07:15:59.133Z,10.87
2022-11-30T07:18:31.682Z,9.80
2022-11-30T07:21:01.116Z,10.93
2022-11-30T07:23:50.914Z,12.20
2022-11-30T07:26:22.673Z,8.60
2022-11-30T07:28:54.839Z,9.97
2022-11-30T07:31:30.471Z,11.40
2022-11-30T07:33:58.454Z,9.00
2022-11-30T07:36:27.083Z,9.30
2022-11-30T07:38:53.773Z,12.30
2022-11-30T07:41:20.561Z,8.43
2022-11-30T07:43:47.253Z,9.57
2022-11-30T07:46:15.727Z,10.00
2022-11-30T07:48:43.502Z,10.73
2022-11-30T07:51:21.624Z,12.10
2022-11-30T07:53:49.219Z,11.30
2022-11-30T07:56:18.204Z,13.40
2022-11-30T07:58:45.176Z,12.60
2022-11-30T08:01:14.789Z,12.63
2022-11-30T08:03:41.874Z,11.37
2022-11-30T08:06:15.377Z,11.40
2022-11-30T08:08:45.321Z,11.97
2022-11-30T08:11:14.500Z,10.00
2022-11-30T08:13:41.985Z,11.10
2022-11-30T08:16:11.254Z,21.83
2022-11-30T08:18:38.464Z,34.50
2022-11-30T08:21:07.281Z,27.97
2022-11-30T08:23:45.272Z,27.47
2022-11-30T08:26:14.886Z,21.80
2022-11-30T08:28:42.734Z,16.60
2022-11-30T08:31:13.150Z,12.73
2022-11-30T08:33:40.227Z,13.00
2022-11-30T08:36:17.871Z,10.57
2022-11-30T08:38:45.673Z,10.90
2022-11-30T08:41:14.831Z,12.40
2022-11-30T08:43:41.882Z,11.83
2022-11-30T08:46:34.775Z,12.30
2022-11-30T08:49:19.732Z,10.73
2022-11-30T08:54:32.620Z,9.37
2022-11-30T08:56:59.422Z,11.03
2022-11-30T08:59:26.273Z,11.07
2022-11-30T09:01:53.024Z,9.97
2022-11-30T09:04:19.695Z,11.20
2022-11-30T09:06:46.345Z,10.10
2022-11-30T09:09:13.805Z,10.50
2022-11-30T09:11:40.504Z,10.70
2022-11-30T09:14:09.135Z,9.73
2022-11-30T09:16:36.085Z,10.33
2022-11-30T09:19:02.918Z,10.07
2022-11-30T09:21:29.697Z,10.77
2022-11-30T09:23:56.874Z,11.17
2022-11-30T09:26:25.416Z,12.67
2022-11-30T09:28:53.597Z,12.40
2022-11-30T09:31:24.673Z,11.83
2022-11-30T09:33:52.704Z,10.47
2022-11-30T09:36:21.616Z,10.67
2022-11-30T09:38:48.878Z,10.50
2022-11-30T09:41:28.617Z,8.83
2022-11-30T09:44:20.133Z,11.47
2022-11-30T09:46:54.742Z,9.63
2022-11-30T09:49:24.335Z,10.03
2022-11-30T09:51:52.917Z,9.70
2022-11-30T09:54:35.440Z,9.87
2022-11-30T09:57:34.512Z,10.37
2022-11-30T10:00:10.833Z,9.33
2022-11-30T10:02:38.783Z,9.63
2022-11-30T10:05:48.126Z,10.57
2022-11-30T10:08:37.756Z,10.27
2022-11-30T10:11:16.585Z,10.23
2022-11-30T10:13:55.234Z,10.70
2022-11-30T10:16:34.196Z,10.40
2022-11-30T10:19:41.939Z,11.20
2022-11-30T10:22:27.206Z,12.00
2022-11-30T10:25:31.604Z,11.40
2022-11-30T10:28:18.111Z,10.00
2022-11-30T10:30:51.200Z,10.37
2022-11-30T10:33:25.475Z,10.60
2022-11-30T10:35:54.572Z,10.40
2022-11-30T10:38:55.605Z,10.50
2022-11-30T10:41:26.693Z,11.60
2022-11-30T10:44:01.262Z,12.07
2022-11-30T10:46:31.759Z,12.37
2022-11-30T10:49:02.975Z,8.70
2022-11-30T10:51:32.462Z,9.47
2022-11-30T10:54:00.272Z,10.03
2022-11-30T10:56:27.074Z,9.07
2022-11-30T10:59:10.533Z,6.13
2022-11-30T11:01:42.045Z,6.20
2022-11-30T11:04:17.543Z,8.20
2022-11-30T11:06:55.911Z,8.60
2022-11-30T11:09:40.935Z,7.80
2022-11-30T11:12:25.081Z,8.07
2022-11-30T11:15:20.012Z,8.73
2022-11-30T11:17:47.390Z,13.70
2022-11-30T11:20:36.942Z,11.47
2022-11-30T11:23:04.691Z,9.20
2022-11-30T11:25:36.754Z,8.70
2022-11-30T11:28:19.286Z,9.07
2022-11-30T11:30:46.207Z,10.57
2022-11-30T11:33:13.107Z,8.10
2022-11-30T11:35:49.670Z,10.13
2022-11-30T11:38:20.617Z,7.83
2022-11-30T11:41:03.770Z,5.30
2022-11-30T11:43:32.643Z,5.03
2022-11-30T11:46:10.593Z,4.40
2022-11-30T11:48:40.026Z,8.20
2022-11-30T11:51:09.112Z,8.67
2022-11-30T11:53:53.789Z,8.13
2022-11-30T11:56:31.797Z,6.63
2022-11-30T11:59:10.688Z,7.00
2022-11-30T12:02:03.402Z,6.37
2022-11-30T12:04:51.082Z,6.53
2022-11-30T12:07:38.151Z,6.07
2022-11-30T12:13:25.734Z,4.80
2022-11-30T12:15:57.116Z,4.27
2022-11-30T12:18:39.163Z,4.83
2022-11-30T12:21:19.132Z,5.00
2022-11-30T12:23:56.387Z,4.63
2022-11-30T12:26:34.042Z,4.90
2022-11-30T12:29:21.742Z,8.10
2022-11-30T12:31:48.446Z,10.87
2022-11-30T12:34:19.112Z,5.37
2022-11-30T12:37:16.848Z,5.10
2022-11-30T12:39:55.027Z,3.50
2022-11-30T12:42:28.724Z,3.57
2022-11-30T12:45:00.884Z,4.57
2022-11-30T12:47:44.922Z,3.73
2022-11-30T12:50:40.012Z,4.00
2022-11-30T12:53:28.034Z,3.87
2022-11-30T12:55:57.644Z,4.30
2022-11-30T12:58:56.092Z,4.50
2022-11-30T13:01:37.720Z,4.60
2022-11-30T13:04:28.549Z,4.77
2022-11-30T13:07:00.487Z,6.07
2022-11-30T13:09:32.083Z,3.77
2022-11-30T13:12:03.953Z,3.67
2022-11-30T13:14:31.406Z,3.67
2022-11-30T13:17:03.510Z,5.60
2022-11-30T13:19:48.109Z,4.30
2022-11-30T13:22:49.619Z,4.63
2022-11-30T13:26:13.515Z,5.10
2022-11-30T13:28:43.417Z,5.90
2022-11-30T13:31:34.207Z,5.17
2022-11-30T13:34:01.122Z,4.87
2022-11-30T13:36:44.885Z,7.50
2022-11-30T13:39:14.701Z,6.50
2022-11-30T13:41:50.009Z,5.97
2022-11-30T13:44:30.953Z,5.20
2022-11-30T13:46:58.091Z,6.10
2022-11-30T13:49:29.420Z,5.60
2022-11-30T13:52:21.421Z,4.30
2022-11-30T13:54:54.518Z,4.97
2022-11-30T13:57:27.481Z,4.40
2022-11-30T13:59:55.826Z,4.07
2022-11-30T14:02:36.682Z,2.73
2022-11-30T14:05:12.278Z,4.17
2022-11-30T14:07:39.258Z,3.70
2022-11-30T14:10:36.423Z,3.17
2022-11-30T14:13:31.741Z,3.97
2022-11-30T14:16:02.731Z,5.67
2022-11-30T14:18:31.553Z,4.57
2022-11-30T14:21:04.080Z,5.50
2022-11-30T14:23:43.812Z,5.60
2022-11-30T14:26:16.085Z,6.23
2022-11-30T14:28:44.214Z,4.77
2022-11-30T14:31:16.276Z,5.90
2022-11-30T14:33:51.904Z,4.30
2022-11-30T14:36:19.757Z,3.73
2022-11-30T14:38:46.787Z,4.20
2022-11-30T14:41:28.006Z,4.40
2022-11-30T14:44:12.932Z,4.90
2022-11-30T14:46:39.832Z,6.50
2022-11-30T14:49:21.244Z,7.80
2022-11-30T14:52:10.361Z,5.70
2022-11-30T14:55:00.349Z,7.07
2022-11-30T14:57:44.177Z,6.93
2022-11-30T15:00:20.280Z,6.63
2022-11-30T15:02:47.292Z,7.17
2022-11-30T15:05:23.150Z,5.63
2022-11-30T15:07:50.685Z,6.47
2022-11-30T15:10:34.072Z,6.90
2022-11-30T15:13:01.510Z,6.20
2022-11-30T15:15:29.861Z,6.20
2022-11-30T15:17:58.860Z,11.90
2022-11-30T15:20:32.157Z,7.53
2022-11-30T15:23:00.142Z,3.80
2022-11-30T15:25:51.122Z,3.30
2022-11-30T15:28:32.810Z,3.43
2022-11-30T15:31:02.791Z,2.97
2022-11-30T15:33:50.142Z,2.43
2022-11-30T15:36:31.923Z,3.77
2022-11-30T15:39:07.653Z,3.30
2022-11-30T15:41:35.381Z,2.87
2022-11-30T15:44:04.861Z,3.07
2022-11-30T15:46:46.060Z,3.93
2022-11-30T15:49:25.312Z,3.27
2022-11-30T15:52:10.310Z,3.80
2022-11-30T15:54:44.082Z,4.80
2022-11-30T15:57:11.264Z,6.80
2022-11-30T15:59:38.064Z,6.73
2022-11-30T16:02:08.435Z,6.70
2022-11-30T16:04:57.246Z,5.27
2022-11-30T16:07:29.728Z,6.50
2022-11-30T16:10:11.321Z,6.23
2022-11-30T16:12:38.041Z,6.17
2022-11-30T16:15:18.590Z,6.00
2022-11-30T16:17:45.679Z,6.33
2022-11-30T16:20:16.761Z,6.17
2022-11-30T16:22:45.611Z,7.63
2022-11-30T16:25:14.491Z,8.33
2022-11-30T16:27:41.694Z,7.70
2022-11-30T16:30:10.075Z,5.37
2022-11-30T16:32:36.783Z,4.60
2022-11-30T16:35:26.671Z,4.03
2022-11-30T16:37:53.653Z,3.43
2022-11-30T16:40:21.260Z,4.10
2022-11-30T16:42:51.871Z,3.77
2022-11-30T16:45:23.050Z,2.30
2022-11-30T16:47:51.282Z,1.93
2022-11-30T16:50:19.124Z,2.33
2022-11-30T16:52:46.170Z,5.10
2022-11-30T16:55:18.231Z,4.67
2022-11-30T16:57:45.675Z,4.50
2022-11-30T17:00:14.983Z,4.77
2022-11-30T17:03:21.677Z,4.33
2022-11-30T17:05:48.561Z,2.87
2022-11-30T17:08:15.570Z,2.20
2022-11-30T17:10:42.693Z,4.00
2022-11-30T17:13:14.322Z,2.30
2022-11-30T17:15:41.311Z,5.53
2022-11-30T17:18:07.993Z,5.10
2022-11-30T17:20:36.355Z,4.00
2022-11-30T17:23:06.450Z,5.10
2022-11-30T17:25:33.249Z,3.13
2022-11-30T17:28:00.303Z,3.30
2022-11-30T17:30:28.065Z,3.20
2022-11-30T17:32:54.951Z,5.10
2022-11-30T17:35:21.797Z,3.83
2022-11-30T17:37:48.572Z,3.97
2022-11-30T17:40:18.053Z,2.70
2022-11-30T17:42:44.999Z,4.17
2022-11-30T17:45:11.912Z,4.60
2022-11-30T17:47:38.902Z,4.37
2022-11-30T17:50:07.563Z,5.27
2022-11-30T17:52:34.425Z,8.00
2022-11-30T17:55:01.264Z,8.53
2022-11-30T17:57:28.000Z,8.27
2022-11-30T17:59:54.924Z,7.13
2022-11-30T18:02:22.040Z,8.90
2022-11-30T18:04:49.078Z,10.33
2022-11-30T18:07:16.091Z,8.50
2022-11-30T18:09:43.241Z,5.03
2022-11-30T18:12:10.742Z,4.43
2022-11-30T18:14:37.470Z,4.13
2022-11-30T18:17:04.397Z,3.00
2022-11-30T18:19:31.222Z,2.73
2022-11-30T18:21:57.949Z,5.07
2022-11-30T18:24:25.697Z,6.27
2022-11-30T18:26:53.134Z,6.37
2022-11-30T18:29:19.856Z,6.27
2022-11-30T18:31:48.552Z,3.80
2022-11-30T18:34:15.644Z,4.27
2022-11-30T18:36:42.501Z,3.83
2022-11-30T18:39:09.603Z,5.03
2022-11-30T18:41:36.402Z,5.00
2022-11-30T18:44:03.119Z,4.20
2022-11-30T18:46:30.194Z,5.20
2022-11-30T18:48:57.004Z,8.37
2022-11-30T18:51:29.253Z,8.40
2022-11-30T18:53:58.770Z,7.47
2022-11-30T18:56:27.320Z,6.03
2022-11-30T18:59:01.862Z,6.00
2022-11-30T19:02:25.526Z,8.17
2022-11-30T19:05:19.333Z,7.73
2022-11-30T19:07:58.436Z,7.50
2022-11-30T19:10:25.913Z,7.17
2022-11-30T19:12:52.630Z,10.83
2022-11-30T19:15:19.503Z,5.57
2022-11-30T19:17:46.364Z,5.17
2022-11-30T19:20:13.610Z,4.03
2022-11-30T19:22:40.392Z,3.73
2022-11-30T19:25:07.760Z,2.67
2022-11-30T19:27:36.042Z,2.67
2022-11-30T19:30:05.951Z,3.63
2022-11-30T19:32:33.411Z,2.10
2022-11-30T19:35:00.153Z,2.20
2022-11-30T19:37:27.252Z,3.40
2022-11-30T19:39:53.991Z,2.67
2022-11-30T19:42:20.782Z,2.20
2022-11-30T19:44:47.756Z,2.27
2022-11-30T19:47:14.777Z,2.50
2022-11-30T19:49:41.436Z,3.17
2022-11-30T19:52:08.190Z,2.93
2022-11-30T19:54:34.959Z,3.03
2022-11-30T19:57:01.784Z,2.90
2022-11-30T19:59:28.500Z,3.07
2022-11-30T20:01:55.299Z,3.10
2022-11-30T20:04:22.200Z,2.53
2022-11-30T20:06:48.939Z,2.40
2022-11-30T20:09:15.678Z,2.90
2022-11-30T20:11:42.580Z,2.50
2022-11-30T20:14:15.514Z,2.53
2022-11-30T20:16:43.163Z,1.97
2022-11-30T20:19:10.112Z,3.60
2022-11-30T20:21:36.768Z,4.67
2022-11-30T20:24:06.541Z,5.83
2022-11-30T20:26:38.223Z,5.07
2022-11-30T20:29:06.905Z,5.27
2022-11-30T20:31:35.613Z,6.13
2022-11-30T20:34:02.538Z,7.13
2022-11-30T20:36:29.360Z,5.57
2022-11-30T20:38:56.273Z,6.97
2022-11-30T20:41:24.350Z,10.70
2022-11-30T20:43:51.845Z,13.53
2022-11-30T20:46:30.271Z,11.87
2022-11-30T20:48:57.628Z,10.17
2022-11-30T20:51:31.166Z,10.33
2022-11-30T20:54:00.774Z,6.90
2022-11-30T20:56:27.548Z,7.10
2022-11-30T20:58:54.297Z,8.20
2022-11-30T21:01:22.206Z,7.20
2022-11-30T21:03:49.144Z,6.20
2022-11-30T21:06:15.981Z,7.20
2022-11-30T21:08:43.008Z,5.40
2022-11-30T21:11:18.007Z,4.30
2022-11-30T21:13:46.111Z,6.00
2022-11-30T21:16:15.075Z,7.67
2022-11-30T21:18:44.482Z,9.53
2022-11-30T21:21:13.512Z,4.50
2022-11-30T21:23:40.462Z,4.80
2022-11-30T21:26:10.739Z,4.77
2022-11-30T21:28:38.381Z,22.10
2022-11-30T21:31:05.973Z,20.50
2022-11-30T21:33:33.038Z,12.67
2022-11-30T21:35:59.676Z,6.47
2022-11-30T21:38:26.416Z,3.93
2022-11-30T21:40:56.597Z,2.93
2022-11-30T21:43:23.325Z,2.80
2022-11-30T21:46:00.968Z,3.60
2022-11-30T21:48:38.021Z,2.10
2022-11-30T21:51:06.916Z,2.27
2022-11-30T21:53:37.362Z,2.53
2022-11-30T21:56:12.779Z,2.70
2022-11-30T21:58:44.603Z,2.00
2022-11-30T22:01:16.263Z,1.57
2022-11-30T22:03:43.208Z,2.90
2022-11-30T22:06:12.006Z,5.47
2022-11-30T22:08:38.669Z,7.97
2022-11-30T22:11:12.887Z,5.20
2022-11-30T22:13:40.218Z,3.20
2022-11-30T22:16:12.714Z,2.53
2022-11-30T22:18:40.023Z,2.70
2022-11-30T22:21:09.175Z,2.03
2022-11-30T22:23:37.476Z,2.33
2022-11-30T22:26:24.487Z,1.90
2022-11-30T22:28:54.118Z,2.33
2022-11-30T22:31:22.874Z,2.33
2022-11-30T22:33:49.567Z,1.30
2022-11-30T22:36:24.679Z,2.50
2022-11-30T22:38:56.537Z,1.60
2022-11-30T22:41:23.769Z,1.90
2022-11-30T22:43:50.577Z,1.23
2022-11-30T22:46:19.740Z,1.67
2022-11-30T22:48:47.125Z,1.57
2022-11-30T22:51:16.406Z,2.40
2022-11-30T22:53:43.236Z,1.37
2022-11-30T22:56:15.040Z,0.97
2022-11-30T22:58:42.763Z,2.67
2022-11-30T23:01:26.415Z,3.13
2022-11-30T23:03:56.342Z,6.40
2022-11-30T23:06:24.400Z,3.60
2022-11-30T23:08:51.945Z,3.40
2022-11-30T23:11:23.148Z,2.07
2022-11-30T23:13:49.842Z,2.13
2022-11-30T23:16:19.048Z,2.60
2022-11-30T23:18:54.644Z,2.60
2022-11-30T23:21:26.196Z,2.27
2022-11-30T23:23:54.626Z,2.10
2022-11-30T23:26:25.296Z,2.70
2022-11-30T23:28:53.068Z,3.60
2022-11-30T23:31:33.835Z,2.93
2022-11-30T23:34:04.927Z,2.00
2022-11-30T23:36:32.347Z,2.40
2022-11-30T23:39:01.571Z,1.97
2022-11-30T23:41:28.398Z,2.03
2022-11-30T23:43:55.149Z,1.60
2022-11-30T23:46:22.274Z,2.27
2022-11-30T23:48:49.386Z,1.53
2022-11-30T23:51:16.053Z,1.20
2022-11-30T23:53:42.753Z,3.17
2022-11-30T23:56:15.519Z,1.40
2022-11-30T23:58:42.088Z,1.43
